sensor_id;sensor_type;location;lat;lon;timestamp;pressure;altitude;pressure_sealevel;temperature;humidity
44127;BME280;29786;50.798;7.302;2023-05-24T00:02:39;99860;;;8;100
44127;BME280;29786;50.798;7.302;2023-05-24T00:07:36;99870;;;8.05;100
44127;BME280;29786;50.798;7.302;2023-05-24T00:12:31;99870;;;8.01;100
44127;BME280;29786;50.798;7.302;2023-05-24T00:18:42;99870;;;7.99;100
44127;BME280;29786;50.798;7.302;2023-05-24T00:23:38;99880;;;7.89;100
44127;BME280;29786;50.798;7.302;2023-05-24T00:28:35;99880;;;7.93;100
44127;BME280;29786;50.798;7.302;2023-05-24T00:33:31;99880;;;8;100
44127;BME280;29786;50.798;7.302;2023-05-24T00:39:42;99880;;;7.94;100
44127;BME280;29786;50.798;7.302;2023-05-24T00:44:38;99890;;;8.05;100
44127;BME280;29786;50.798;7.302;2023-05-24T00:49:35;99880;;;7.91;100
44127;BME280;29786;50.798;7.302;2023-05-24T00:54:31;99880;;;7.58;100
44127;BME280;29786;50.798;7.302;2023-05-24T01:00:42;99870;;;7.67;100
44127;BME280;29786;50.798;7.302;2023-05-24T01:05:39;99870;;;7.54;100
44127;BME280;29786;50.798;7.302;2023-05-24T01:10:39;99880;;;7.46;100
44127;BME280;29786;50.798;7.302;2023-05-24T01:21:49;99880;;;7.24;100
44127;BME280;29786;50.798;7.302;2023-05-24T01:26:42;99880;;;7.1;100
44127;BME280;29786;50.798;7.302;2023-05-24T01:31:35;99880;;;7.06;100
44127;BME280;29786;50.798;7.302;2023-05-24T01:36:32;99880;;;6.99;100
44127;BME280;29786;50.798;7.302;2023-05-24T01:42:47;99870;;;6.93;100
44127;BME280;29786;50.798;7.302;2023-05-24T01:48:13;99870;;;6.75;100
44127;BME280;29786;50.798;7.302;2023-05-24T01:52:36;99870;;;6.93;100
44127;BME280;29786;50.798;7.302;2023-05-24T01:57:32;99870;;;6.6;100
44127;BME280;29786;50.798;7.302;2023-05-24T02:03:43;99860;;;6.76;100
44127;BME280;29786;50.798;7.302;2023-05-24T02:08:39;99860;;;6.69;100
44127;BME280;29786;50.798;7.302;2023-05-24T02:13:36;99860;;;6.78;100
44127;BME280;29786;50.798;7.302;2023-05-24T02:18:32;99860;;;6.47;100
44127;BME280;29786;50.798;7.302;2023-05-24T02:23:29;99860;;;6.42;100
44127;BME280;29786;50.798;7.302;2023-05-24T02:29:40;99860;;;6.35;100
44127;BME280;29786;50.798;7.302;2023-05-24T02:34:36;99830;;;6.21;100
44127;BME280;29786;50.798;7.302;2023-05-24T02:39:33;99860;;;6.28;100
44127;BME280;29786;50.798;7.302;2023-05-24T02:45:43;99860;;;6.05;100
44127;BME280;29786;50.798;7.302;2023-05-24T02:50:40;99860;;;6.13;100
44127;BME280;29786;50.798;7.302;2023-05-24T02:55:36;99830;;;5.96;100
44127;BME280;29786;50.798;7.302;2023-05-24T03:00:33;99850;;;6.09;100
44127;BME280;29786;50.798;7.302;2023-05-24T03:05:30;99850;;;5.93;100
44127;BME280;29786;50.798;7.302;2023-05-24T03:11:40;99850;;;5.91;100
44127;BME280;29786;50.798;7.302;2023-05-24T03:16:37;99840;;;5.95;100
44127;BME280;29786;50.798;7.302;2023-05-24T03:21:42;99830;;;5.86;100
44127;BME280;29786;50.798;7.302;2023-05-24T03:26:39;99850;;;5.85;100
44127;BME280;29786;50.798;7.302;2023-05-24T03:31:34;99850;;;5.72;100
44127;BME280;29786;50.798;7.302;2023-05-24T03:42:42;99850;;;5.63;100
44127;BME280;29786;50.798;7.302;2023-05-24T03:47:38;99860;;;5.71;100
44127;BME280;29786;50.798;7.302;2023-05-24T03:52:35;99850;;;5.84;100
44127;BME280;29786;50.798;7.302;2023-05-24T03:57:31;99850;;;5.83;100
44127;BME280;29786;50.798;7.302;2023-05-24T04:03:42;99860;;;6.06;100
44127;BME280;29786;50.798;7.302;2023-05-24T04:08:38;99870;;;6.12;100
44127;BME280;29786;50.798;7.302;2023-05-24T04:13:35;99870;;;6.07;100
44127;BME280;29786;50.798;7.302;2023-05-24T04:18:32;99870;;;6.21;100
44127;BME280;29786;50.798;7.302;2023-05-24T04:24:43;99880;;;6.32;100
44127;BME280;29786;50.798;7.302;2023-05-24T04:29:39;99890;;;6.3;100
44127;BME280;29786;50.798;7.302;2023-05-24T04:34:35;99890;;;6.44;100
44127;BME280;29786;50.798;7.302;2023-05-24T04:39:32;99890;;;6.56;100
44127;BME280;29786;50.798;7.302;2023-05-24T04:45:42;99890;;;6.64;100
44127;BME280;29786;50.798;7.302;2023-05-24T04:50:39;99900;;;6.84;100
44127;BME280;29786;50.798;7.302;2023-05-24T04:55:35;99900;;;7.1;100
44127;BME280;29786;50.798;7.302;2023-05-24T05:00:32;99900;;;7.31;100
44127;BME280;29786;50.798;7.302;2023-05-24T05:05:29;99910;;;7.27;100
44127;BME280;29786;50.798;7.302;2023-05-24T05:11:39;99920;;;7.69;100
44127;BME280;29786;50.798;7.302;2023-05-24T05:16:36;99930;;;7.9;100
44127;BME280;29786;50.798;7.302;2023-05-24T05:21:32;99940;;;8.18;100
44127;BME280;29786;50.798;7.302;2023-05-24T05:26:29;99940;;;8.18;100
44127;BME280;29786;50.798;7.302;2023-05-24T05:32:40;99940;;;8.35;100
44127;BME280;29786;50.798;7.302;2023-05-24T05:37:36;99930;;;8.37;100
44127;BME280;29786;50.798;7.302;2023-05-24T05:42:33;99950;;;8.43;100
44127;BME280;29786;50.798;7.302;2023-05-24T05:47:29;99940;;;8.56;100
44127;BME280;29786;50.798;7.302;2023-05-24T05:53:40;99930;;;8.68;100
44127;BME280;29786;50.798;7.302;2023-05-24T05:58:36;99920;;;8.49;100
44127;BME280;29786;50.798;7.302;2023-05-24T06:03:33;99940;;;8.68;100
44127;BME280;29786;50.798;7.302;2023-05-24T06:08:29;99950;;;9.07;100
44127;BME280;29786;50.798;7.302;2023-05-24T06:14:40;99940;;;9;100
44127;BME280;29786;50.798;7.302;2023-05-24T06:19:37;99920;;;9.75;100
44127;BME280;29786;50.798;7.302;2023-05-24T06:24:33;99910;;;10.32;100
44127;BME280;29786;50.798;7.302;2023-05-24T06:29:30;99900;;;10.83;100
44127;BME280;29786;50.798;7.302;2023-05-24T06:35:40;99900;;;10.29;100
44127;BME280;29786;50.798;7.302;2023-05-24T06:40:37;99910;;;9.8;100
44127;BME280;29786;50.798;7.302;2023-05-24T06:45:33;99910;;;10.18;100
44127;BME280;29786;50.798;7.302;2023-05-24T06:50:30;99920;;;10.2;100
44127;BME280;29786;50.798;7.302;2023-05-24T06:56:41;99930;;;11.04;100
44127;BME280;29786;50.798;7.302;2023-05-24T07:01:38;99930;;;11.09;100
44127;BME280;29786;50.798;7.302;2023-05-24T07:06:34;99930;;;10.5;100
44127;BME280;29786;50.798;7.302;2023-05-24T07:11:30;99940;;;10.37;100
44127;BME280;29786;50.798;7.302;2023-05-24T07:17:41;99960;;;10.47;100
44127;BME280;29786;50.798;7.302;2023-05-24T07:22:38;99960;;;10.28;100
44127;BME280;29786;50.798;7.302;2023-05-24T07:27:34;99960;;;10.47;100
44127;BME280;29786;50.798;7.302;2023-05-24T07:32:31;99960;;;11.31;100
44127;BME280;29786;50.798;7.302;2023-05-24T07:38:41;99960;;;12.09;93.81
44127;BME280;29786;50.798;7.302;2023-05-24T07:43:38;99960;;;11.77;95.01
44127;BME280;29786;50.798;7.302;2023-05-24T07:48:34;99960;;;12.32;86.1
44127;BME280;29786;50.798;7.302;2023-05-24T07:53:31;99960;;;12.49;82.39
44127;BME280;29786;50.798;7.302;2023-05-24T07:55:59;99960;;;12.84;83.77
44127;BME280;29786;50.798;7.302;2023-05-24T07:59:41;99950;;;12.96;73
44127;BME280;29786;50.798;7.302;2023-05-24T08:04:38;99960;;;13.09;73.08
44127;BME280;29786;50.798;7.302;2023-05-24T08:09:34;99950;;;12.07;76.9
44127;BME280;29786;50.798;7.302;2023-05-24T08:14:31;99960;;;13.03;77.49
44127;BME280;29786;50.798;7.302;2023-05-24T08:20:42;99960;;;13.67;74.44
44127;BME280;29786;50.798;7.302;2023-05-24T08:25:38;99960;;;13.17;70.91
44127;BME280;29786;50.798;7.302;2023-05-24T08:30:35;99960;;;13.55;75.05
44127;BME280;29786;50.798;7.302;2023-05-24T08:35:31;99960;;;13.3;70.31
44127;BME280;29786;50.798;7.302;2023-05-24T08:41:42;99960;;;13.58;70.83
44127;BME280;29786;50.798;7.302;2023-05-24T08:46:39;99960;;;13.37;72.9
44127;BME280;29786;50.798;7.302;2023-05-24T08:51:35;99970;;;13.9;70.59
44127;BME280;29786;50.798;7.302;2023-05-24T08:56:32;99960;;;13.57;70.06
44127;BME280;29786;50.798;7.302;2023-05-24T09:02:42;99940;;;14.12;63.29
44127;BME280;29786;50.798;7.302;2023-05-24T09:07:39;99930;;;15.11;58.96
44127;BME280;29786;50.798;7.302;2023-05-24T09:12:36;99930;;;14.17;59.55
44127;BME280;29786;50.798;7.302;2023-05-24T09:17:33;99930;;;13.63;61.43
44127;BME280;29786;50.798;7.302;2023-05-24T09:23:43;99930;;;14.65;59.41
44127;BME280;29786;50.798;7.302;2023-05-24T09:28:39;99940;;;13.46;62.74
44127;BME280;29786;50.798;7.302;2023-05-24T09:33:35;99950;;;13.11;64.53
44127;BME280;29786;50.798;7.302;2023-05-24T09:38:32;99940;;;13.62;66.01
44127;BME280;29786;50.798;7.302;2023-05-24T09:44:43;99940;;;13.63;66.09
44127;BME280;29786;50.798;7.302;2023-05-24T09:47:11;99930;;;13.54;64.74
44127;BME280;29786;50.798;7.302;2023-05-24T09:49:39;99930;;;13.3;65.32
44127;BME280;29786;50.798;7.302;2023-05-24T09:54:36;99930;;;13.49;66.47
44127;BME280;29786;50.798;7.302;2023-05-24T09:59:32;99920;;;14.65;60.66
44127;BME280;29786;50.798;7.302;2023-05-24T10:05:43;99910;;;14.37;58.89
44127;BME280;29786;50.798;7.302;2023-05-24T10:10:40;99910;;;14.7;59.15
44127;BME280;29786;50.798;7.302;2023-05-24T10:15:36;99890;;;13.92;60.45
44127;BME280;29786;50.798;7.302;2023-05-24T10:20:33;99910;;;13.93;62.29
44127;BME280;29786;50.798;7.302;2023-05-24T10:25:29;99920;;;13.91;60.74
44127;BME280;29786;50.798;7.302;2023-05-24T10:31:40;99920;;;14.91;59.28
44127;BME280;29786;50.798;7.302;2023-05-24T10:36:36;99900;;;14.68;61
44127;BME280;29786;50.798;7.302;2023-05-24T10:41:40;99920;;;14.14;58.24
44127;BME280;29786;50.798;7.302;2023-05-24T10:47:44;99920;;;14.58;59.5
44127;BME280;29786;50.798;7.302;2023-05-24T10:52:40;99920;;;14.86;59.61
44127;BME280;29786;50.798;7.302;2023-05-24T10:57:42;99910;;;14.58;59.77
44127;BME280;29786;50.798;7.302;2023-05-24T11:02:33;99920;;;15.1;57.96
44127;BME280;29786;50.798;7.302;2023-05-24T11:07:30;99910;;;16.11;55.86
44127;BME280;29786;50.798;7.302;2023-05-24T11:13:40;99900;;;15.99;54.3
44127;BME280;29786;50.798;7.302;2023-05-24T11:23:33;99900;;;15.13;57.06
44127;BME280;29786;50.798;7.302;2023-05-24T11:28:30;99890;;;15.15;56.25
44127;BME280;29786;50.798;7.302;2023-05-24T11:34:41;99890;;;15.69;54.28
44127;BME280;29786;50.798;7.302;2023-05-24T11:38:31;99890;;;16.7;53.3
44127;BME280;29786;50.798;7.302;2023-05-24T11:44:42;99890;;;15.82;53.17
44127;BME280;29786;50.798;7.302;2023-05-24T11:49:38;99880;;;15.2;55.78
44127;BME280;29786;50.798;7.302;2023-05-24T11:54:35;99880;;;13.73;59.32
44127;BME280;29786;50.798;7.302;2023-05-24T11:59:31;99890;;;13.57;59.32
44127;BME280;29786;50.798;7.302;2023-05-24T12:05:42;99890;;;13.61;61.83
44127;BME280;29786;50.798;7.302;2023-05-24T12:10:40;99890;;;14.17;60.69
44127;BME280;29786;50.798;7.302;2023-05-24T12:15:35;99900;;;14.09;59.63
44127;BME280;29786;50.798;7.302;2023-05-24T12:20:32;99890;;;14.44;59.24
44127;BME280;29786;50.798;7.302;2023-05-24T12:26:43;99900;;;14.6;56.36
44127;BME280;29786;50.798;7.302;2023-05-24T12:31:39;99900;;;14.89;59.09
44127;BME280;29786;50.798;7.302;2023-05-24T12:36:36;99900;;;15.42;57.07
44127;BME280;29786;50.798;7.302;2023-05-24T12:41:32;99890;;;15.59;55.03
44127;BME280;29786;50.798;7.302;2023-05-24T12:47:43;99890;;;15.55;54.74
44127;BME280;29786;50.798;7.302;2023-05-24T12:52:39;99900;;;14.5;54.88
44127;BME280;29786;50.798;7.302;2023-05-24T12:57:36;99900;;;14.75;58.33
44127;BME280;29786;50.798;7.302;2023-05-24T13:02:32;99900;;;16.43;53.53
44127;BME280;29786;50.798;7.302;2023-05-24T13:08:43;99890;;;16.62;54.42
44127;BME280;29786;50.798;7.302;2023-05-24T13:13:39;99890;;;15.87;55.04
44127;BME280;29786;50.798;7.302;2023-05-24T13:18:36;99870;;;15.27;54.69
44127;BME280;29786;50.798;7.302;2023-05-24T13:23:33;99890;;;15.6;54.65
44127;BME280;29786;50.798;7.302;2023-05-24T13:29:43;99890;;;16.42;53.67
44127;BME280;29786;50.798;7.302;2023-05-24T13:34:40;99890;;;16.82;52.75
44127;BME280;29786;50.798;7.302;2023-05-24T13:39:36;99860;;;16.68;52.98
44127;BME280;29786;50.798;7.302;2023-05-24T13:44:33;99880;;;16.23;52.61
44127;BME280;29786;50.798;7.302;2023-05-24T13:49:29;99870;;;16.52;52.61
44127;BME280;29786;50.798;7.302;2023-05-24T13:55:40;99870;;;16.78;53.23
44127;BME280;29786;50.798;7.302;2023-05-24T14:00:37;99850;;;18.03;51.23
44127;BME280;29786;50.798;7.302;2023-05-24T14:05:33;99870;;;19.08;47.89
44127;BME280;29786;50.798;7.302;2023-05-24T14:11:44;99870;;;17.86;51.81
44127;BME280;29786;50.798;7.302;2023-05-24T14:16:40;99880;;;17.89;49.62
44127;BME280;29786;50.798;7.302;2023-05-24T14:26:34;99880;;;15.55;56
44127;BME280;29786;50.798;7.302;2023-05-24T14:31:30;99870;;;15.76;55.06
44127;BME280;29786;50.798;7.302;2023-05-24T14:37:41;99870;;;16.75;53.01
44127;BME280;29786;50.798;7.302;2023-05-24T14:42:37;99870;;;18.2;52.87
44127;BME280;29786;50.798;7.302;2023-05-24T14:47:34;99860;;;18.89;47.99
44127;BME280;29786;50.798;7.302;2023-05-24T14:58:41;99860;;;19.43;46.74
44127;BME280;29786;50.798;7.302;2023-05-24T15:03:37;99840;;;22.96;39.34
44127;BME280;29786;50.798;7.302;2023-05-24T15:08:34;99840;;;20.7;43.57
44127;BME280;29786;50.798;7.302;2023-05-24T15:13:30;99850;;;21.38;41.71
44127;BME280;29786;50.798;7.302;2023-05-24T15:19:41;99850;;;19.33;45.59
44127;BME280;29786;50.798;7.302;2023-05-24T15:24:38;99850;;;19.04;47.46
44127;BME280;29786;50.798;7.302;2023-05-24T15:29:34;99850;;;20;47.14
44127;BME280;29786;50.798;7.302;2023-05-24T15:34:31;99840;;;20.45;44.94
44127;BME280;29786;50.798;7.302;2023-05-24T15:40:42;99840;;;21.04;45.23
44127;BME280;29786;50.798;7.302;2023-05-24T15:45:38;99840;;;22.86;39.66
44127;BME280;29786;50.798;7.302;2023-05-24T15:50:34;99850;;;21.98;41.31
44127;BME280;29786;50.798;7.302;2023-05-24T15:55:31;99850;;;17.37;49.93
44127;BME280;29786;50.798;7.302;2023-05-24T16:01:42;99850;;;16.35;54.35
44127;BME280;29786;50.798;7.302;2023-05-24T16:06:38;99850;;;16.37;55.01
44127;BME280;29786;50.798;7.302;2023-05-24T16:11:35;99850;;;15.98;56.48
44127;BME280;29786;50.798;7.302;2023-05-24T16:16:31;99850;;;15.53;59.78
44127;BME280;29786;50.798;7.302;2023-05-24T16:22:45;99840;;;15.59;60.77
44127;BME280;29786;50.798;7.302;2023-05-24T16:27:38;99830;;;16.04;59.67
44127;BME280;29786;50.798;7.302;2023-05-24T16:32:35;99840;;;16.04;59.63
44127;BME280;29786;50.798;7.302;2023-05-24T16:37:32;99840;;;15.69;59.97
44127;BME280;29786;50.798;7.302;2023-05-24T16:43:42;99850;;;15.29;64.72
44127;BME280;29786;50.798;7.302;2023-05-24T16:48:39;99850;;;15.45;64.49
44127;BME280;29786;50.798;7.302;2023-05-24T16:53:35;99850;;;15.1;64.79
44127;BME280;29786;50.798;7.302;2023-05-24T16:58:32;99840;;;14.73;66.46
44127;BME280;29786;50.798;7.302;2023-05-24T17:04:42;99840;;;14.1;71.3
44127;BME280;29786;50.798;7.302;2023-05-24T17:09:39;99840;;;14.29;71.9
44127;BME280;29786;50.798;7.302;2023-05-24T17:14:35;99850;;;14.4;73.11
44127;BME280;29786;50.798;7.302;2023-05-24T17:19:32;99850;;;14.44;71.06
44127;BME280;29786;50.798;7.302;2023-05-24T17:25:43;99840;;;14.15;75.18
44127;BME280;29786;50.798;7.302;2023-05-24T17:30:39;99840;;;14.2;73.91
44127;BME280;29786;50.798;7.302;2023-05-24T17:35:36;99840;;;14.06;75.37
44127;BME280;29786;50.798;7.302;2023-05-24T17:40:32;99840;;;14.53;72.74
44127;BME280;29786;50.798;7.302;2023-05-24T17:46:43;99850;;;14.61;72.85
44127;BME280;29786;50.798;7.302;2023-05-24T17:51:39;99850;;;14.57;71.84
44127;BME280;29786;50.798;7.302;2023-05-24T17:56:36;99830;;;14.34;74.59
44127;BME280;29786;50.798;7.302;2023-05-24T18:01:32;99850;;;14.43;74.99
44127;BME280;29786;50.798;7.302;2023-05-24T18:07:43;99850;;;14.17;78.21
44127;BME280;29786;50.798;7.302;2023-05-24T18:12:40;99860;;;13.94;82.97
44127;BME280;29786;50.798;7.302;2023-05-24T18:17:36;99840;;;14.17;79.36
44127;BME280;29786;50.798;7.302;2023-05-24T18:22:33;99860;;;14.11;82.84
44127;BME280;29786;50.798;7.302;2023-05-24T18:27:29;99860;;;13.92;85.3
44127;BME280;29786;50.798;7.302;2023-05-24T18:33:40;99870;;;13.39;88.97
44127;BME280;29786;50.798;7.302;2023-05-24T18:38:36;99850;;;13.29;88.9
44127;BME280;29786;50.798;7.302;2023-05-24T18:43:33;99870;;;13;94.56
44127;BME280;29786;50.798;7.302;2023-05-24T18:49:44;99870;;;13.3;93.53
44127;BME280;29786;50.798;7.302;2023-05-24T18:54:40;99880;;;13.21;93.43
44127;BME280;29786;50.798;7.302;2023-05-24T18:59:37;99880;;;12.6;100
44127;BME280;29786;50.798;7.302;2023-05-24T19:04:33;99880;;;12.39;100
44127;BME280;29786;50.798;7.302;2023-05-24T19:09:30;99890;;;12.38;100
44127;BME280;29786;50.798;7.302;2023-05-24T19:15:40;99890;;;12.28;100
44127;BME280;29786;50.798;7.302;2023-05-24T19:20:37;99900;;;12.22;100
44127;BME280;29786;50.798;7.302;2023-05-24T19:25:34;99900;;;11.99;100
44127;BME280;29786;50.798;7.302;2023-05-24T19:36:41;99920;;;11.3;100
44127;BME280;29786;50.798;7.302;2023-05-24T19:41:38;99910;;;11.31;100
44127;BME280;29786;50.798;7.302;2023-05-24T19:46:34;99910;;;11.16;100
44127;BME280;29786;50.798;7.302;2023-05-24T19:51:30;99910;;;11.09;100
44127;BME280;29786;50.798;7.302;2023-05-24T19:57:41;99930;;;11.18;100
44127;BME280;29786;50.798;7.302;2023-05-24T20:02:38;99920;;;11.04;100
44127;BME280;29786;50.798;7.302;2023-05-24T20:07:34;99930;;;11.13;100
44127;BME280;29786;50.798;7.302;2023-05-24T20:12:31;99940;;;11.03;100
44127;BME280;29786;50.798;7.302;2023-05-24T20:18:41;99950;;;11.12;100
44127;BME280;29786;50.798;7.302;2023-05-24T20:23:38;99950;;;11.13;100
44127;BME280;29786;50.798;7.302;2023-05-24T20:28:34;99950;;;11.13;100
44127;BME280;29786;50.798;7.302;2023-05-24T20:33:31;99950;;;10.85;100
44127;BME280;29786;50.798;7.302;2023-05-24T20:39:42;99960;;;10.73;100
44127;BME280;29786;50.798;7.302;2023-05-24T20:44:38;99960;;;10.41;100
44127;BME280;29786;50.798;7.302;2023-05-24T20:49:35;99950;;;10.47;100
44127;BME280;29786;50.798;7.302;2023-05-24T20:54:31;99950;;;10.26;100
44127;BME280;29786;50.798;7.302;2023-05-24T21:00:42;99960;;;10.18;100
44127;BME280;29786;50.798;7.302;2023-05-24T21:05:38;99960;;;10.09;100
44127;BME280;29786;50.798;7.302;2023-05-24T21:10:35;99960;;;9.95;100
44127;BME280;29786;50.798;7.302;2023-05-24T21:15:31;99960;;;9.97;100
44127;BME280;29786;50.798;7.302;2023-05-24T21:26:39;99960;;;10.07;100
44127;BME280;29786;50.798;7.302;2023-05-24T21:31:35;99970;;;10.08;100
44127;BME280;29786;50.798;7.302;2023-05-24T21:36:32;99970;;;10.16;100
44127;BME280;29786;50.798;7.302;2023-05-24T21:42:42;99970;;;10.16;100
44127;BME280;29786;50.798;7.302;2023-05-24T21:47:39;99970;;;10.14;100
44127;BME280;29786;50.798;7.302;2023-05-24T21:52:35;99980;;;10.1;100
44127;BME280;29786;50.798;7.302;2023-05-24T21:57:32;99980;;;9.79;100
44127;BME280;29786;50.798;7.302;2023-05-24T22:03:43;99980;;;9.88;100
44127;BME280;29786;50.798;7.302;2023-05-24T22:08:39;99990;;;10;100
44127;BME280;29786;50.798;7.302;2023-05-24T22:13:36;99990;;;9.85;100
44127;BME280;29786;50.798;7.302;2023-05-24T22:18:32;99990;;;9.79;100
44127;BME280;29786;50.798;7.302;2023-05-24T22:24:43;99990;;;9.59;100
44127;BME280;29786;50.798;7.302;2023-05-24T22:29:39;99990;;;9.68;100
44127;BME280;29786;50.798;7.302;2023-05-24T22:34:36;99980;;;9.26;100
44127;BME280;29786;50.798;7.302;2023-05-24T22:39:32;100000;;;9.14;100
44127;BME280;29786;50.798;7.302;2023-05-24T22:45:43;100000;;;8.96;100
44127;BME280;29786;50.798;7.302;2023-05-24T22:50:40;100000;;;8.93;100
44127;BME280;29786;50.798;7.302;2023-05-24T22:55:36;99980;;;8.89;100
44127;BME280;29786;50.798;7.302;2023-05-24T23:00:33;100000;;;9.18;100
44127;BME280;29786;50.798;7.302;2023-05-24T23:05:29;100000;;;8.87;100
44127;BME280;29786;50.798;7.302;2023-05-24T23:11:40;100010;;;8.99;100
44127;BME280;29786;50.798;7.302;2023-05-24T23:16:36;99990;;;8.89;100
44127;BME280;29786;50.798;7.302;2023-05-24T23:21:33;100010;;;8.88;100
44127;BME280;29786;50.798;7.302;2023-05-24T23:26:30;100010;;;8.75;100
44127;BME280;29786;50.798;7.302;2023-05-24T23:32:40;100000;;;8.58;100
44127;BME280;29786;50.798;7.302;2023-05-24T23:37:37;100000;;;8.34;100
44127;BME280;29786;50.798;7.302;2023-05-24T23:42:33;100000;;;8.55;100
44127;BME280;29786;50.798;7.302;2023-05-24T23:47:30;100000;;;8.62;100
44127;BME280;29786;50.798;7.302;2023-05-24T23:53:40;99990;;;8.89;100
44127;BME280;29786;50.798;7.302;2023-05-24T23:58:37;100000;;;8.88;100
